Time;durP1;ratioP1;P1;durP2;ratioP2;P2;SDS_P1;SDS_P2;PMS_P1;PMS_P2;Temp;Humidity;BMP_temperature;BMP_pressure;BME280_temperature;BME280_humidity;BME280_pressure;Samples;Min_cycle;Max_cycle;Signal;HPM_P1;HPM_P2
2022/11/23 00:01:32;;;;;;;4.72;3.42;;;;;;;2.86;56.53;99641.78;4987722;28;20037;-69
2022/11/23 00:04:01;;;;;;;6.93;3.45;;;;;;;2.62;57.48;99638.97;4988381;28;20040;-70
2022/11/23 00:06:27;;;;;;;6.85;3.20;;;;;;;3.03;56.21;99647.31;5006865;28;20034;-67
2022/11/23 00:08:53;;;;;;;9.00;3.58;;;;;;;2.94;56.36;99638.09;5005674;28;20045;-70
2022/11/23 00:11:20;;;;;;;13.52;4.50;;;;;;;3.22;55.63;99633.88;5003857;28;20072;-67
2022/11/23 00:13:46;;;;;;;3.60;2.38;;;;;;;3.16;55.53;99640.91;5004859;28;20049;-68
2022/11/23 00:16:22;;;;;;;5.30;2.85;;;;;;;3.11;56.04;99641.94;5004784;28;20646;-69
2022/11/23 00:18:52;;;;;;;6.45;2.58;;;;;;;3.04;56.51;99638.66;5006269;28;20129;-67
2022/11/23 00:21:21;;;;;;;8.15;3.47;;;;;;;3.22;55.89;99646.78;5004749;28;20452;-68
2022/11/23 00:23:47;;;;;;;6.50;2.78;;;;;;;3.12;56.41;99638.47;5005706;28;20136;-65
2022/11/23 00:26:13;;;;;;;7.22;3.85;;;;;;;3.12;56.36;99639.31;5005946;28;20060;-68
2022/11/23 00:28:41;;;;;;;6.90;4.03;;;;;;;3.19;56.34;99640.81;5004966;28;20042;-65
2022/11/23 00:31:09;;;;;;;5.68;2.38;;;;;;;3.22;56.19;99639.03;5004176;28;20037;-65
2022/11/23 00:33:35;;;;;;;4.65;2.90;;;;;;;3.26;56.44;99643.22;5004579;28;20107;-65
2022/11/23 00:36:11;;;;;;;5.47;3.38;;;;;;;3.12;57.13;99636.72;5007374;28;20549;-65
2022/11/23 00:38:36;;;;;;;7.78;3.42;;;;;;;2.96;58.08;99640.66;4996461;28;20033;-66
2022/11/23 00:41:09;;;;;;;5.43;3.33;;;;;;;3.12;57.46;99647.06;5010049;28;20040;-68
2022/11/23 00:43:34;;;;;;;6.68;3.58;;;;;;;3.25;56.96;99636.34;4992523;28;20111;-71
2022/11/23 00:46:03;;;;;;;8.93;3.15;;;;;;;3.21;57.39;99638.19;5006004;28;20896;-70
2022/11/23 00:48:29;;;;;;;9.40;2.90;;;;;;;2.76;58.97;99646.34;4992797;28;20132;-67
2022/11/23 00:50:56;;;;;;;9.27;2.85;;;;;;;3.14;57.79;99639.28;4977120;28;20037;-67
2022/11/23 00:53:21;;;;;;;8.73;2.80;;;;;;;3.22;57.36;99639.03;4991900;28;20052;-65
2022/11/23 00:55:54;;;;;;;7.53;3.30;;;;;;;3.04;58.28;99640.41;5008421;28;20554;-70
2022/11/23 00:58:20;;;;;;;5.70;2.45;;;;;;;3.18;57.94;99644.31;4982523;28;20088;-66
2022/11/23 01:00:46;;;;;;;9.70;4.20;;;;;;;3.08;58.19;99645.44;4989021;28;20684;-67
2022/11/23 01:03:11;;;;;;;6.53;4.20;;;;;;;3.19;58.42;99651.16;4992582;28;20044;-68
2022/11/23 01:05:37;;;;;;;8.43;2.40;;;;;;;3.25;58.22;99649.25;5005462;28;20113;-69
2022/11/23 01:08:03;;;;;;;8.23;3.33;;;;;;;3.25;58.15;99649.25;4993931;28;20048;-69
2022/11/23 01:10:30;;;;;;;4.95;2.55;;;;;;;3.27;58.35;99650.06;4993621;28;20092;-71
2022/11/23 01:12:56;;;;;;;5.30;3.25;;;;;;;3.34;57.86;99660.22;4992290;28;20050;-68
2022/11/23 01:15:22;;;;;;;5.32;3.05;;;;;;;3.37;58.01;99654.13;5004943;28;20041;-69
2022/11/23 01:17:47;;;;;;;6.25;3.08;;;;;;;3.39;58.12;99644.59;5001308;28;20072;-68
2022/11/23 01:20:13;;;;;;;6.95;2.30;;;;;;;3.35;57.83;99641.25;5005819;28;20079;-68
2022/11/23 01:22:39;;;;;;;4.25;2.78;;;;;;;3.45;57.98;99649.59;4994221;28;20045;-67
2022/11/23 01:25:05;;;;;;;6.35;3.25;;;;;;;3.42;58.04;99652.25;5003815;28;20029;-68
2022/11/23 01:27:30;;;;;;;5.28;3.15;;;;;;;3.53;58.00;99649.34;5005778;28;20073;-69
2022/11/23 01:29:57;;;;;;;7.18;2.85;;;;;;;3.36;58.34;99652.44;5001827;28;20035;-69
2022/11/23 01:32:23;;;;;;;5.45;3.00;;;;;;;3.49;58.01;99647.72;5003471;28;20054;-69
2022/11/23 01:34:48;;;;;;;5.75;3.20;;;;;;;3.63;57.88;99647.31;5008322;28;20057;-67
2022/11/23 01:37:14;;;;;;;6.95;2.65;;;;;;;3.51;58.27;99649.38;5013818;28;20069;-70
2022/11/23 01:39:39;;;;;;;6.35;3.03;;;;;;;3.66;57.91;99647.22;4995521;28;20120;-69
2022/11/23 01:42:07;;;;;;;4.63;2.70;;;;;;;3.56;58.59;99652.69;4996250;28;20203;-70
2022/11/23 01:44:34;;;;;;;6.55;3.05;;;;;;;3.67;58.22;99656.66;5005145;28;20495;-70
2022/11/23 01:47:03;;;;;;;5.90;2.67;;;;;;;3.74;58.08;99658.19;5003324;28;20069;-69
2022/11/23 01:49:42;;;;;;;5.68;3.45;;;;;;;3.61;58.62;99657.72;5006415;28;20044;-69
2022/11/23 01:52:22;;;;;;;5.63;3.00;;;;;;;3.57;58.55;99656.94;4987006;28;20047;-69
2022/11/23 01:54:57;;;;;;;4.97;3.08;;;;;;;3.66;58.70;99660.16;4992119;28;20064;-68
2022/11/23 01:57:30;;;;;;;6.68;3.50;;;;;;;3.58;58.77;99650.03;5005871;28;20079;-71
2022/11/23 01:59:56;;;;;;;7.70;3.65;;;;;;;3.74;58.61;99655.59;4985923;28;20033;-69
2022/11/23 02:02:22;;;;;;;5.57;3.35;;;;;;;3.72;58.90;99659.97;5005122;28;20041;-69
2022/11/23 02:04:53;;;;;;;5.80;3.90;;;;;;;3.91;58.27;99655.91;4990494;28;20029;-68
2022/11/23 02:07:20;;;;;;;5.70;3.13;;;;;;;3.82;58.48;99657.94;4982091;28;20065;-69
2022/11/23 02:09:46;;;;;;;8.10;3.63;;;;;;;3.76;58.52;99651.19;5005723;28;20044;-68
2022/11/23 02:12:13;;;;;;;5.47;3.38;;;;;;;3.91;58.27;99655.91;4984752;28;20485;-68
2022/11/23 02:14:40;;;;;;;4.85;3.42;;;;;;;3.73;58.66;99656.47;5003816;28;20086;-69
2022/11/23 02:17:05;;;;;;;8.77;3.90;;;;;;;3.92;58.50;99657.59;4991241;28;20049;-69
2022/11/23 02:19:46;;;;;;;10.02;3.67;;;;;;;4.00;58.03;99650.41;5013947;28;20029;-67
2022/11/23 02:22:38;;;;;;;6.80;2.90;;;;;;;3.42;59.59;99654.81;5007837;28;20075;-68
2022/11/23 02:25:14;;;;;;;12.55;3.60;;;;;;;3.97;58.20;99652.28;4993014;28;20052;-68
2022/11/23 02:27:41;;;;;;;8.13;3.92;;;;;;;4.07;58.26;99650.22;4986473;28;20509;-68
2022/11/23 02:30:07;;;;;;;4.20;3.33;;;;;;;3.91;58.47;99650.72;4992836;28;20076;-70
2022/11/23 02:32:34;;;;;;;8.15;4.13;;;;;;;3.75;59.34;99645.19;4978565;28;20710;-68
2022/11/23 02:34:59;;;;;;;7.22;3.78;;;;;;;3.88;59.11;99648.25;4989213;28;20041;-67
2022/11/23 02:37:28;;;;;;;4.95;3.50;;;;;;;4.00;58.40;99660.75;4989176;28;20110;-68
2022/11/23 02:39:55;;;;;;;11.27;3.88;;;;;;;3.98;59.21;99653.97;4989326;28;20051;-68
2022/11/23 02:42:22;;;;;;;6.30;4.28;;;;;;;4.03;58.98;99654.69;4987089;28;20465;-68
2022/11/23 02:44:52;;;;;;;4.47;3.22;;;;;;;4.13;58.35;99655.22;4986960;28;20038;-69
2022/11/23 02:47:18;;;;;;;9.10;3.60;;;;;;;4.11;58.61;99654.41;4996812;28;20048;-70
2022/11/23 02:49:48;;;;;;;6.35;4.10;;;;;;;4.09;58.94;99651.03;5000755;28;20559;-69
2022/11/23 02:52:15;;;;;;;8.05;3.88;;;;;;;4.00;59.04;99645.25;4973680;28;20034;-67
2022/11/23 02:54:40;;;;;;;5.38;4.03;;;;;;;4.13;58.59;99644.88;4985231;28;20083;-69
2022/11/23 02:57:07;;;;;;;8.20;4.03;;;;;;;4.04;58.83;99651.19;4989418;28;20239;-68
2022/11/23 02:59:32;;;;;;;5.70;3.78;;;;;;;4.17;58.58;99651.63;5003285;28;20041;-69
2022/11/23 03:01:59;;;;;;;5.68;3.75;;;;;;;4.11;58.60;99649.25;4985882;28;20096;-69
2022/11/23 03:04:25;;;;;;;4.18;3.72;;;;;;;4.06;59.00;99658.91;5001122;28;20036;-67
2022/11/23 03:06:51;;;;;;;6.13;3.50;;;;;;;4.12;58.79;99659.53;4987066;28;20121;-67
2022/11/23 03:09:16;;;;;;;5.97;4.13;;;;;;;3.97;59.30;99654.88;4987283;28;20315;-68
2022/11/23 03:11:42;;;;;;;4.63;3.28;;;;;;;4.06;59.57;99661.47;4988554;28;20056;-68
2022/11/23 03:14:07;;;;;;;3.80;3.25;;;;;;;3.93;60.04;99654.09;4983404;28;20064;-66
2022/11/23 03:16:41;;;;;;;6.65;4.28;;;;;;;4.17;59.08;99652.47;4974082;28;20793;-67
2022/11/23 03:19:06;;;;;;;9.50;5.05;;;;;;;4.24;59.13;99647.94;5004257;28;20417;-68
2022/11/23 03:21:32;;;;;;;6.35;4.50;;;;;;;4.12;59.33;99648.34;4988054;28;20474;-66
2022/11/23 03:24:04;;;;;;;;;;;;;;;4.12;59.63;99654.38;4988364;28;20056;-68
2022/11/23 03:26:29;;;;;;;7.93;4.55;;;;;;;4.14;59.70;99650.00;5002218;28;19917;-67
2022/11/23 03:29:03;;;;;;;6.03;4.15;;;;;;;4.21;59.70;99653.22;4973162;28;20065;-67
2022/11/23 03:31:29;;;;;;;7.00;4.38;;;;;;;4.01;60.40;99661.63;5002479;28;20127;-66
2022/11/23 03:33:55;;;;;;;5.43;4.18;;;;;;;4.29;59.66;99664.16;4988321;28;20054;-67
2022/11/23 03:36:22;;;;;;;7.38;3.85;;;;;;;4.35;59.66;99660.53;4999947;28;20115;-66
2022/11/23 03:38:48;;;;;;;5.82;4.60;;;;;;;4.36;59.48;99663.06;4988144;28;20574;-67
2022/11/23 03:41:27;;;;;;;5.28;4.38;;;;;;;4.39;59.45;99665.53;5000180;28;20041;-67
2022/11/23 03:43:54;;;;;;;6.53;4.85;;;;;;;4.43;59.70;99663.69;4984750;28;20530;-68
2022/11/23 03:46:19;;;;;;;6.53;4.70;;;;;;;4.45;59.40;99671.41;4987882;28;20061;-67
2022/11/23 03:48:45;;;;;;;4.80;4.07;;;;;;;4.37;60.11;99666.50;4991763;28;20073;-66
2022/11/23 03:51:10;;;;;;;8.70;5.07;;;;;;;4.49;59.43;99662.63;4990281;28;20623;-67
2022/11/23 03:53:38;;;;;;;7.05;4.00;;;;;;;4.50;59.59;99665.19;4990330;28;20172;-67
2022/11/23 03:56:04;;;;;;;6.45;4.15;;;;;;;4.60;59.23;99670.88;4987327;28;20030;-66
2022/11/23 03:58:34;;;;;;;12.10;4.88;;;;;;;4.58;59.46;99672.66;4977935;28;20506;-68
2022/11/23 04:01:03;;;;;;;6.78;4.18;;;;;;;4.74;59.13;99671.22;4996263;28;20025;-73
2022/11/23 04:03:29;;;;;;;5.45;3.53;;;;;;;4.65;59.23;99668.97;4990164;28;20057;-73
2022/11/23 04:06:12;;;;;;;7.85;4.68;;;;;;;4.79;58.94;99664.19;4995699;28;20033;-72
2022/11/23 04:08:56;;;;;;;4.68;3.65;;;;;;;4.72;59.29;99664.44;5003725;28;20616;-67
2022/11/23 04:11:35;;;;;;;5.63;3.83;;;;;;;4.64;59.77;99668.13;4990599;28;20083;-66
2022/11/23 04:14:00;;;;;;;5.82;4.00;;;;;;;4.43;60.15;99671.44;4991194;28;20429;-67
2022/11/23 04:16:26;;;;;;;5.47;4.32;;;;;;;4.76;59.38;99661.66;4992458;28;20447;-67
2022/11/23 04:18:54;;;;;;;7.93;5.10;;;;;;;4.81;59.03;99659.78;4978276;28;20160;-66
2022/11/23 04:21:20;;;;;;;7.05;4.32;;;;;;;4.86;59.01;99661.38;4986752;28;20459;-66
2022/11/23 04:23:48;;;;;;;5.68;4.47;;;;;;;4.86;59.36;99666.56;4990840;28;20041;-65
2022/11/23 04:26:14;;;;;;;9.70;5.65;;;;;;;4.74;59.82;99667.81;4987931;28;20502;-66
2022/11/23 04:28:42;;;;;;;9.25;4.85;;;;;;;4.60;60.22;99671.72;4992381;28;20546;-67
2022/11/23 04:31:09;;;;;;;7.85;4.90;;;;;;;4.84;59.38;99662.25;5006887;28;20080;-67
2022/11/23 04:33:45;;;;;;;6.47;5.10;;;;;;;4.92;59.10;99666.34;4985605;28;20266;-70
2022/11/23 04:36:14;;;;;;;6.88;4.53;;;;;;;4.81;59.35;99659.78;4989042;28;20033;-66
2022/11/23 04:38:40;;;;;;;7.50;4.85;;;;;;;4.77;59.73;99668.56;5001768;28;20045;-67
2022/11/23 04:41:07;;;;;;;6.00;4.57;;;;;;;4.94;59.38;99664.53;5015054;28;20025;-68
2022/11/23 04:43:32;;;;;;;5.38;4.45;;;;;;;5.02;59.09;99667.72;4988326;28;20548;-67
2022/11/23 04:45:58;;;;;;;7.00;3.95;;;;;;;4.56;60.53;99670.13;4983383;28;20045;-69
2022/11/23 04:48:28;;;;;;;7.43;4.45;;;;;;;4.95;59.41;99667.09;5003209;28;20041;-69
2022/11/23 04:50:55;;;;;;;6.00;4.22;;;;;;;4.94;59.25;99660.19;4990526;28;20040;-68
2022/11/23 04:53:26;;;;;;;6.80;5.28;;;;;;;4.77;59.89;99658.19;4980805;28;20094;-68
2022/11/23 04:55:52;;;;;;;6.35;4.43;;;;;;;4.96;59.36;99658.41;4991536;28;20084;-69
2022/11/23 04:58:18;;;;;;;5.93;4.30;;;;;;;5.09;59.12;99657.97;4989135;28;20144;-69
2022/11/23 05:00:49;;;;;;;8.05;5.10;;;;;;;4.84;59.60;99658.84;4993393;28;20038;-70
2022/11/23 05:03:15;;;;;;;10.32;4.95;;;;;;;4.81;59.99;99654.63;4973486;28;20038;-70
2022/11/23 05:05:41;;;;;;;8.25;5.18;;;;;;;5.11;59.10;99667.38;4991189;28;20044;-69
2022/11/23 05:08:07;;;;;;;10.80;5.95;;;;;;;5.07;59.44;99664.97;4990094;28;20049;-67
2022/11/23 05:10:45;;;;;;;9.45;6.40;;;;;;;4.67;60.66;99672.34;4986500;28;20037;-70
2022/11/23 05:13:13;;;;;;;7.47;5.57;;;;;;;5.14;59.23;99669.00;4988584;28;20077;-70
2022/11/23 05:15:39;;;;;;;8.35;5.65;;;;;;;5.16;59.05;99665.44;4985875;28;20029;-71
2022/11/23 05:18:05;;;;;;;15.93;6.82;;;;;;;5.23;59.08;99666.94;4983204;28;20766;-68
2022/11/23 05:20:33;;;;;;;16.30;6.30;;;;;;;5.21;59.22;99671.34;4988603;28;20032;-72
2022/11/23 05:22:58;;;;;;;7.63;5.47;;;;;;;5.25;58.84;99678.06;5001425;28;20048;-69
2022/11/23 05:25:25;;;;;;;8.25;6.10;;;;;;;5.08;59.51;99674.41;4991474;28;20038;-69
2022/11/23 05:27:59;;;;;;;9.48;5.75;;;;;;;5.25;58.95;99675.47;4967759;28;20037;-69
2022/11/23 05:30:26;;;;;;;8.85;5.85;;;;;;;5.28;59.10;99673.66;4992597;28;20085;-69
2022/11/23 05:32:52;;;;;;;10.45;5.50;;;;;;;5.36;58.56;99667.31;4988645;28;20441;-69
2022/11/23 05:35:19;;;;;;;11.95;6.68;;;;;;;5.17;59.32;99667.16;4992085;28;20033;-73
2022/11/23 05:37:44;;;;;;;11.00;5.78;;;;;;;5.34;58.96;99668.28;4975252;28;20034;-73
2022/11/23 05:40:14;;;;;;;8.38;6.43;;;;;;;5.34;58.85;99665.69;4988530;28;23610;-73
2022/11/23 05:42:43;;;;;;;11.32;6.57;;;;;;;5.34;58.80;99673.44;4989017;28;20042;-73
2022/11/23 05:45:17;;;;;;;12.40;6.85;;;;;;;5.42;58.63;99668.84;4973371;28;20096;-69
2022/11/23 05:47:53;;;;;;;11.43;7.10;;;;;;;5.34;59.11;99676.03;4989954;28;20534;-69
2022/11/23 05:50:27;;;;;;;7.40;4.73;;;;;;;5.33;59.09;99679.56;4989173;28;20033;-71
2022/11/23 05:53:12;;;;;;;14.80;6.35;;;;;;;5.45;58.95;99685.09;5003750;28;20316;-73
2022/11/23 05:55:40;;;;;;;13.07;6.95;;;;;;;5.22;59.54;99679.94;4974915;28;20489;-73
2022/11/23 05:58:06;;;;;;;10.40;6.22;;;;;;;5.42;58.84;99682.63;4992962;28;20482;-73
2022/11/23 06:00:33;;;;;;;9.23;6.57;;;;;;;5.15;59.78;99678.47;4989765;28;20534;-72
2022/11/23 06:03:02;;;;;;;12.98;7.30;;;;;;;5.50;58.55;99679.75;4990235;28;20037;-72
2022/11/23 06:05:30;;;;;;;8.43;6.03;;;;;;;5.59;58.14;99684.59;4968436;28;20290;-72
2022/11/23 06:07:56;;;;;;;11.57;6.18;;;;;;;5.54;58.26;99681.31;4975347;28;20042;-69
2022/11/23 06:10:25;;;;;;;12.80;7.30;;;;;;;5.48;58.79;99686.75;4975212;28;20045;-69
2022/11/23 06:12:51;;;;;;;12.82;6.97;;;;;;;5.46;58.76;99683.38;4973837;28;20061;-73
2022/11/23 06:15:18;;;;;;;11.00;6.13;;;;;;;5.51;58.32;99696.16;4988609;28;20037;-71
2022/11/23 06:17:45;;;;;;;16.73;9.38;;;;;;;5.34;59.57;99696.78;4975081;28;20037;-71
2022/11/23 06:20:15;;;;;;;12.65;6.57;;;;;;;5.53;58.60;99694.34;4978240;28;20180;-72
2022/11/23 06:22:52;;;;;;;19.95;7.90;;;;;;;5.56;58.62;99699.41;4974100;28;20046;-72
2022/11/23 06:25:17;;;;;;;12.82;8.05;;;;;;;5.70;58.20;99693.69;4985658;28;20049;-69
2022/11/23 06:27:56;;;;;;;;;;;;;;;5.37;59.08;99683.69;4990736;28;20041;-69
2022/11/23 06:30:26;;;;;;;16.90;7.95;;;;;;;5.53;58.92;99684.81;4973838;28;19923;-69
2022/11/23 06:32:54;;;;;;;15.30;9.70;;;;;;;5.54;58.94;99686.50;4980368;28;20557;-69
2022/11/23 06:35:22;;;;;;;13.55;8.10;;;;;;;5.53;58.85;99692.59;4991069;28;20033;-69
2022/11/23 06:37:49;;;;;;;14.23;7.30;;;;;;;5.47;59.03;99695.41;4998356;28;20048;-69
2022/11/23 06:40:16;;;;;;;12.40;8.40;;;;;;;5.23;59.80;99698.03;4968938;28;20053;-69
2022/11/23 06:42:41;;;;;;;15.10;8.90;;;;;;;5.44;59.28;99701.56;5002837;28;20099;-69
2022/11/23 06:45:19;;;;;;;15.85;9.15;;;;;;;5.45;58.88;99708.41;5004191;28;20080;-69
2022/11/23 06:47:46;;;;;;;16.67;9.90;;;;;;;5.35;59.49;99701.91;4989006;28;20571;-72
2022/11/23 06:50:13;;;;;;;15.38;8.02;;;;;;;5.48;59.01;99707.47;4998219;28;20365;-70
2022/11/23 06:52:39;;;;;;;14.60;9.38;;;;;;;5.48;58.82;99712.66;4998745;28;20037;-71
2022/11/23 06:55:04;;;;;;;16.02;9.10;;;;;;;5.46;59.01;99717.06;4988368;28;20040;-70
2022/11/23 06:57:31;;;;;;;17.35;10.15;;;;;;;5.31;59.78;99715.03;5002732;28;20124;-70
2022/11/23 06:59:59;;;;;;;15.68;8.80;;;;;;;5.50;58.96;99716.03;5005985;28;20346;-69
2022/11/23 07:02:31;;;;;;;18.85;9.00;;;;;;;5.28;59.58;99722.91;5004003;28;20041;-69
2022/11/23 07:04:57;;;;;;;17.38;9.55;;;;;;;5.22;59.91;99716.22;4988875;28;20037;-69
2022/11/23 07:07:23;;;;;;;16.33;9.73;;;;;;;5.34;59.56;99720.09;4990330;28;20072;-70
2022/11/23 07:09:58;;;;;;;15.23;8.05;;;;;;;5.56;58.65;99726.16;4989068;28;20063;-69
2022/11/23 07:12:40;;;;;;;14.40;8.80;;;;;;;5.53;58.94;99728.88;4975363;28;20455;-69
2022/11/23 07:15:07;;;;;;;20.70;9.20;;;;;;;5.51;58.90;99728.09;4989928;28;20061;-69
2022/11/23 07:17:40;;;;;;;11.68;8.85;;;;;;;5.40;59.38;99735.41;4974858;28;20045;-69
2022/11/23 07:20:10;;;;;;;20.02;9.05;;;;;;;5.52;59.01;99739.31;4987727;28;20069;-71
2022/11/23 07:22:36;;;;;;;16.23;8.95;;;;;;;5.50;58.91;99739.34;4981531;28;20052;-71
2022/11/23 07:25:03;;;;;;;18.45;9.10;;;;;;;5.45;59.27;99741.28;4996509;28;20037;-73
2022/11/23 07:27:28;;;;;;;16.83;9.38;;;;;;;5.53;58.88;99741.84;4979118;28;20514;-72
2022/11/23 07:29:56;;;;;;;16.15;9.18;;;;;;;5.49;58.98;99753.22;4989439;28;20297;-72
2022/11/23 07:32:22;;;;;;;18.23;10.10;;;;;;;5.31;60.19;99756.50;4993870;28;20037;-70
2022/11/23 07:34:48;;;;;;;14.18;8.63;;;;;;;5.37;59.51;99751.94;4980560;28;20144;-70
2022/11/23 07:37:14;;;;;;;20.33;9.90;;;;;;;5.46;59.61;99758.53;4993585;28;20034;-70
2022/11/23 07:39:40;;;;;;;18.83;10.55;;;;;;;5.40;59.51;99757.00;4994032;28;20026;-70
2022/11/23 07:42:06;;;;;;;20.40;9.85;;;;;;;5.48;59.45;99761.91;4977258;28;20575;-69
2022/11/23 07:44:35;;;;;;;22.90;10.15;;;;;;;5.08;60.28;99765.06;5007275;28;20032;-69
2022/11/23 07:47:01;;;;;;;14.90;10.38;;;;;;;5.45;59.55;99759.41;4967215;28;20156;-67
2022/11/23 07:49:28;;;;;;;16.75;8.70;;;;;;;5.61;59.47;99770.06;5006915;28;20049;-67
2022/11/23 07:51:55;;;;;;;19.00;9.60;;;;;;;5.64;59.36;99775.16;4990076;28;20083;-67
2022/11/23 07:54:20;;;;;;;16.05;8.55;;;;;;;4.98;61.17;99774.91;4994188;28;20032;-67
2022/11/23 07:56:46;;;;;;;21.95;9.77;;;;;;;5.67;59.28;99768.09;5007698;28;20037;-66
2022/11/23 07:59:11;;;;;;;18.65;10.38;;;;;;;5.46;59.60;99771.50;4993708;28;20812;-68
2022/11/23 08:01:37;;;;;;;17.52;9.48;;;;;;;5.85;58.88;99769.13;5004433;28;20033;-67
2022/11/23 08:04:03;;;;;;;15.13;9.48;;;;;;;5.57;59.60;99778.84;4994100;28;20975;-69
2022/11/23 08:06:28;;;;;;;20.95;9.20;;;;;;;5.49;59.58;99773.13;4995446;28;20041;-73
2022/11/23 08:08:54;;;;;;;25.70;9.52;;;;;;;5.75;59.10;99777.31;4991674;28;20120;-68
2022/11/23 08:11:21;;;;;;;21.17;10.00;;;;;;;5.54;59.63;99776.38;4994437;28;20549;-69
2022/11/23 08:13:46;;;;;;;18.92;9.57;;;;;;;5.59;59.73;99783.09;5003270;28;20051;-68
2022/11/23 08:16:14;;;;;;;17.23;9.05;;;;;;;5.85;58.74;99786.47;5005845;28;20045;-68
2022/11/23 08:18:40;;;;;;;17.92;9.25;;;;;;;5.90;58.44;99789.72;5006268;28;20441;-69
2022/11/23 08:21:05;;;;;;;14.68;9.38;;;;;;;5.78;59.11;99783.25;4992941;28;20514;-70
2022/11/23 08:23:31;;;;;;;20.13;9.10;;;;;;;5.90;58.50;99787.13;4977177;28;20518;-69
2022/11/23 08:25:57;;;;;;;13.75;8.70;;;;;;;6.07;58.16;99782.13;5005697;28;20041;-69
2022/11/23 08:28:22;;;;;;;17.75;8.63;;;;;;;6.04;58.06;99779.66;5004813;28;20042;-68
2022/11/23 08:30:48;;;;;;;15.43;8.02;;;;;;;6.01;58.51;99792.75;4985966;28;20033;-68
2022/11/23 08:33:14;;;;;;;12.93;7.97;;;;;;;5.88;59.02;99794.09;4985246;28;20061;-68
2022/11/23 08:35:41;;;;;;;18.98;8.68;;;;;;;6.07;58.19;99791.69;4988352;28;20036;-68
2022/11/23 08:38:10;;;;;;;14.57;8.50;;;;;;;5.76;59.36;99789.41;4989242;28;20498;-69
2022/11/23 08:40:36;;;;;;;21.08;8.63;;;;;;;6.20;58.60;99784.28;5003558;28;20144;-69
2022/11/23 08:43:03;;;;;;;20.00;9.35;;;;;;;6.39;57.68;99794.78;4976559;28;20045;-69
2022/11/23 08:45:29;;;;;;;15.68;8.60;;;;;;;6.39;58.18;99789.59;5005805;28;20049;-71
2022/11/23 08:47:59;;;;;;;13.07;7.35;;;;;;;6.45;57.39;99789.34;4978221;28;20040;-69
2022/11/23 08:50:25;;;;;;;12.65;7.55;;;;;;;6.19;58.55;99792.94;4986866;28;20483;-69
2022/11/23 08:53:08;;;;;;;11.25;7.55;;;;;;;6.31;57.75;99802.88;5004313;28;20038;-69
2022/11/23 08:55:34;;;;;;;13.88;7.32;;;;;;;6.09;58.18;99795.91;4976673;28;20037;-69
2022/11/23 08:57:59;;;;;;;20.73;9.27;;;;;;;6.11;58.38;99795.00;5003328;28;20037;-68
2022/11/23 09:00:26;;;;;;;16.30;8.35;;;;;;;6.31;57.85;99796.81;5007686;28;20088;-69
2022/11/23 09:02:51;;;;;;;21.13;7.45;;;;;;;6.64;57.63;99799.81;4976165;28;20041;-67
2022/11/23 09:05:17;;;;;;;15.13;7.93;;;;;;;6.72;57.40;99797.78;4991332;28;20088;-69
2022/11/23 09:07:42;;;;;;;14.63;8.55;;;;;;;6.87;56.62;99798.91;5003600;28;20357;-70
2022/11/23 09:10:08;;;;;;;15.75;8.77;;;;;;;7.09;56.17;99804.03;5006519;28;20048;-70
2022/11/23 09:12:34;;;;;;;13.93;8.25;;;;;;;7.10;56.18;99808.31;4980959;28;20045;-70
2022/11/23 09:14:59;;;;;;;13.52;7.80;;;;;;;7.23;55.91;99799.09;5003850;28;20533;-71
2022/11/23 09:17:25;;;;;;;16.27;7.85;;;;;;;7.03;56.31;99807.72;5019894;28;20045;-67
2022/11/23 09:19:52;;;;;;;15.48;8.65;;;;;;;6.78;56.46;99807.91;5018236;28;20517;-68
2022/11/23 09:22:18;;;;;;;18.08;8.35;;;;;;;6.72;56.59;99807.31;5009975;28;20033;-68
2022/11/23 09:24:43;;;;;;;13.93;7.10;;;;;;;6.40;57.14;99807.72;4990738;28;20033;-68
2022/11/23 09:27:09;;;;;;;15.00;6.80;;;;;;;6.61;56.67;99808.59;4973778;28;20060;-68
2022/11/23 09:29:34;;;;;;;13.77;7.53;;;;;;;6.34;57.48;99812.28;4990969;28;20735;-69
2022/11/23 09:32:01;;;;;;;11.38;7.10;;;;;;;6.54;56.60;99798.53;4985253;28;20041;-70
2022/11/23 09:34:27;;;;;;;18.25;7.97;;;;;;;6.78;56.20;99802.72;5001978;28;20355;-70
2022/11/23 09:36:55;;;;;;;21.13;11.65;;;;;;;6.43;57.32;99811.94;4989471;28;21908;-71
2022/11/23 09:39:21;;;;;;;13.00;6.53;;;;;;;6.65;56.34;99809.31;5003389;28;20431;-68
2022/11/23 09:42:04;;;;;;;11.18;6.97;;;;;;;6.81;55.68;99806.94;5002477;28;20039;-69
2022/11/23 09:44:33;;;;;;;12.88;7.63;;;;;;;6.36;57.25;99806.13;4982513;28;20183;-71
2022/11/23 09:47:01;;;;;;;15.25;7.63;;;;;;;6.99;55.52;99810.53;4983569;28;20037;-69
2022/11/23 09:49:55;;;;;;;11.63;7.43;;;;;;;6.44;56.98;99803.22;5004485;28;20077;-68
2022/11/23 09:52:22;;;;;;;16.27;7.32;;;;;;;6.83;55.90;99805.97;4987193;28;20041;-69
2022/11/23 09:54:52;;;;;;;28.92;12.13;;;;;;;6.83;55.81;99811.16;4979676;28;20730;-69
2022/11/23 09:57:23;;;;;;;11.30;6.55;;;;;;;6.88;55.72;99818.75;5000322;28;20416;-69
2022/11/23 09:59:58;;;;;;;27.70;11.55;;;;;;;6.94;55.82;99809.88;5002886;28;20044;-68
2022/11/23 10:02:27;;;;;;;13.60;7.10;;;;;;;6.64;55.91;99805.03;4978957;28;20053;-71
2022/11/23 10:04:54;;;;;;;15.60;8.32;;;;;;;6.73;56.19;99802.06;5002738;28;20045;-69
2022/11/23 10:07:21;;;;;;;29.45;10.00;;;;;;;6.81;55.93;99807.78;4983578;28;20078;-72
2022/11/23 10:10:17;;;;;;;12.88;7.03;;;;;;;6.84;55.84;99812.00;4990634;28;20033;-70
2022/11/23 10:12:45;;;;;;;13.80;6.40;;;;;;;6.84;55.79;99818.06;5001664;28;20113;-70
2022/11/23 10:15:28;;;;;;;11.95;6.63;;;;;;;7.12;55.04;99807.34;5003903;28;20946;-69
2022/11/23 10:18:18;;;;;;;17.58;7.25;;;;;;;7.19;55.02;99812.28;4984129;28;20041;-70
2022/11/23 10:21:05;;;;;;;16.90;8.32;;;;;;;6.98;55.39;99808.84;5002751;28;20040;-69
2022/11/23 10:23:54;;;;;;;14.63;7.90;;;;;;;6.68;55.96;99809.19;5005114;28;20941;-67
2022/11/23 10:26:27;;;;;;;13.02;7.32;;;;;;;7.00;56.03;99818.25;4993118;28;20041;-70
2022/11/23 10:28:53;;;;;;;18.35;6.10;;;;;;;7.12;55.41;99807.34;5001179;28;20038;-69
2022/11/23 10:31:22;;;;;;;14.48;6.10;;;;;;;7.17;55.50;99799.34;5005724;28;20615;-68
2022/11/23 10:34:00;;;;;;;12.45;6.82;;;;;;;7.24;55.50;99803.34;5003378;28;20046;-70
2022/11/23 10:36:26;;;;;;;11.73;7.65;;;;;;;7.56;54.72;99797.69;5002669;28;20037;-69
2022/11/23 10:39:02;;;;;;;12.50;6.85;;;;;;;7.67;54.07;99795.50;5003747;28;20095;-69
2022/11/23 10:41:30;;;;;;;11.27;5.65;;;;;;;7.66;54.06;99792.00;5005968;28;20033;-69
2022/11/23 10:44:13;;;;;;;8.10;5.88;;;;;;;7.71;54.37;99794.41;4984676;28;20042;-69
2022/11/23 10:46:39;;;;;;;14.35;5.80;;;;;;;7.49;54.45;99786.72;4987729;28;20912;-69
2022/11/23 10:49:21;;;;;;;14.95;6.13;;;;;;;7.98;53.46;99797.53;5004239;28;20047;-69
2022/11/23 10:52:04;;;;;;;15.90;6.57;;;;;;;8.02;53.42;99799.06;4985672;28;20037;-69
2022/11/23 10:54:55;;;;;;;15.32;5.93;;;;;;;7.36;54.80;99803.75;4982078;28;20041;-69
2022/11/23 10:57:31;;;;;;;9.20;5.90;;;;;;;7.65;53.93;99797.31;4988498;28;20042;-69
2022/11/23 11:00:03;;;;;;;15.32;6.38;;;;;;;7.66;53.66;99804.19;4985593;28;20099;-69
2022/11/23 11:02:38;;;;;;;12.25;5.47;;;;;;;7.62;53.51;99806.06;5005929;28;20054;-69
2022/11/23 11:05:28;;;;;;;14.50;5.50;;;;;;;7.28;54.77;99796.28;4979572;28;20034;-68
2022/11/23 11:07:56;;;;;;;9.95;4.85;;;;;;;7.49;53.87;99810.13;5010851;28;20669;-69
2022/11/23 11:10:36;;;;;;;14.30;6.85;;;;;;;7.46;53.94;99799.84;5006420;28;20065;-69
2022/11/23 11:13:02;;;;;;;14.23;6.00;;;;;;;7.50;53.96;99811.78;4985316;28;20042;-68
2022/11/23 11:15:28;;;;;;;12.85;5.90;;;;;;;7.37;54.21;99813.25;5008309;28;20053;-69
2022/11/23 11:17:55;;;;;;;13.10;5.85;;;;;;;7.50;54.10;99811.78;5003738;28;20037;-68
2022/11/23 11:20:27;;;;;;;8.73;5.30;;;;;;;7.28;54.08;99807.53;4988762;28;20041;-69
2022/11/23 11:23:15;;;;;;;5.35;4.55;;;;;;;7.43;54.26;99805.19;5003610;28;20780;-69
2022/11/23 11:25:41;;;;;;;13.95;4.88;;;;;;;7.56;53.61;99801.16;4984669;28;20095;-70
2022/11/23 11:28:31;;;;;;;8.13;5.45;;;;;;;7.41;53.98;99796.59;5006432;28;20562;-69
2022/11/23 11:31:16;;;;;;;8.85;4.15;;;;;;;7.47;53.78;99796.34;5005375;28;20080;-69
2022/11/23 11:33:51;;;;;;;10.98;5.28;;;;;;;7.50;53.31;99794.44;4987769;28;20099;-69
2022/11/23 11:36:17;;;;;;;8.98;4.90;;;;;;;7.22;53.71;99793.94;5014401;28;20034;-68
2022/11/23 11:38:49;;;;;;;12.95;6.22;;;;;;;7.38;53.20;99792.38;5024885;28;20037;-68
2022/11/23 11:41:18;;;;;;;10.82;4.35;;;;;;;7.47;53.25;99791.13;5027373;28;20128;-69
2022/11/23 11:43:48;;;;;;;12.00;4.75;;;;;;;7.44;53.26;99781.69;5004273;28;20037;-70
2022/11/23 11:46:15;;;;;;;10.93;4.40;;;;;;;7.35;53.61;99792.50;5008829;28;20040;-69